Time;durP1;ratioP1;P1;durP2;ratioP2;P2;SDS_P1;SDS_P2;PMS_P1;PMS_P2;Temp;Humidity;BMP_temperature;BMP_pressure;BME280_temperature;BME280_humidity;BME280_pressure;Samples;Min_cycle;Max_cycle;Signal;HPM_P1;HPM_P2
2021/12/15 00:00:21;;;;;;;139.98;42.85;;;9.80;99.90;;;;;;5071011;28;20108;-73
2021/12/15 00:02:50;;;;;;;135.75;42.83;;;9.80;99.90;;;;;;5089413;28;20048;-73
2021/12/15 00:05:21;;;;;;;127.47;42.25;;;9.80;99.90;;;;;;5089132;28;20047;-73
2021/12/15 00:07:50;;;;;;;119.40;41.40;;;9.80;99.90;;;;;;5089099;28;20522;-73
2021/12/15 00:10:15;;;;;;;125.45;42.60;;;9.80;99.90;;;;;;5080651;28;20043;-73
2021/12/15 00:12:41;;;;;;;112.82;39.35;;;9.80;99.90;;;;;;5091689;28;20401;-73
2021/12/15 00:15:08;;;;;;;122.05;40.92;;;9.80;99.90;;;;;;5109327;28;20497;-73
2021/12/15 00:17:33;;;;;;;115.35;40.42;;;9.80;99.90;;;;;;5091522;28;20114;-73
2021/12/15 00:19:59;;;;;;;115.65;39.50;;;9.80;99.90;;;;;;5091163;28;20052;-73
2021/12/15 00:22:25;;;;;;;109.22;38.88;;;9.80;99.90;;;;;;5091243;28;20404;-73
2021/12/15 00:24:51;;;;;;;103.70;39.33;;;9.80;99.90;;;;;;5091136;28;20047;-74
2021/12/15 00:27:16;;;;;;;99.45;38.33;;;9.80;99.90;;;;;;5091078;28;20096;-73
2021/12/15 00:29:42;;;;;;;103.30;38.47;;;9.80;99.90;;;;;;5109398;28;20445;-74
2021/12/15 00:32:08;;;;;;;85.65;35.42;;;9.80;99.90;;;;;;5091615;28;20641;-74
2021/12/15 00:34:37;;;;;;;98.05;38.33;;;9.80;99.90;;;;;;5091405;28;20396;-73
2021/12/15 00:37:04;;;;;;;93.53;36.65;;;9.80;99.90;;;;;;5090796;28;20044;-73
2021/12/15 00:39:30;;;;;;;89.43;35.72;;;9.80;99.90;;;;;;5109393;28;20588;-73
2021/12/15 00:41:57;;;;;;;96.28;37.35;;;9.80;99.90;;;;;;5090692;28;20122;-74
2021/12/15 00:44:22;;;;;;;92.93;36.53;;;9.80;99.90;;;;;;5091171;28;20509;-73
2021/12/15 00:46:51;;;;;;;78.95;35.42;;;9.80;99.90;;;;;;5092643;28;20044;-73
2021/12/15 00:49:18;;;;;;;96.55;37.55;;;9.80;99.90;;;;;;5112225;28;20079;-74
2021/12/15 00:51:44;;;;;;;82.63;36.53;;;9.80;99.90;;;;;;5094673;28;20040;-73
2021/12/15 00:54:10;;;;;;;89.95;36.25;;;9.80;99.90;;;;;;5094227;28;20050;-74
2021/12/15 00:56:37;;;;;;;86.25;37.58;;;9.80;99.90;;;;;;5094469;28;20066;-74
2021/12/15 00:59:08;;;;;;;92.80;36.95;;;9.90;99.90;;;;;;5112591;28;20105;-73
2021/12/15 01:01:35;;;;;;;89.80;39.30;;;9.80;99.90;;;;;;5112587;28;20055;-73
2021/12/15 01:04:03;;;;;;;94.97;37.90;;;9.90;99.90;;;;;;5112496;28;20053;-73
2021/12/15 01:06:31;;;;;;;90.80;36.95;;;9.80;99.90;;;;;;5112914;28;20492;-74
2021/12/15 01:09:03;;;;;;;89.85;37.05;;;9.80;99.90;;;;;;5076991;28;20047;-74
2021/12/15 01:20:33;;;;;;;87.82;35.28;;;9.80;99.90;;;;;;5054553;28;20561;-74
2021/12/15 01:23:04;;;;;;;86.65;35.60;;;9.80;99.90;;;;;;5091694;28;20044;-73
2021/12/15 01:25:37;;;;;;;82.22;33.67;;;9.80;99.90;;;;;;5057334;28;20044;-74
2021/12/15 01:28:03;;;;;;;94.30;36.88;;;9.80;99.90;;;;;;5073591;28;20048;-73
2021/12/15 01:30:33;;;;;;;80.90;34.13;;;9.80;99.90;;;;;;5091847;28;20052;-73
2021/12/15 01:33:01;;;;;;;82.10;34.50;;;9.80;99.90;;;;;;5056516;28;20048;-74
2021/12/15 01:35:27;;;;;;;93.13;36.22;;;9.90;99.90;;;;;;5073611;28;20050;-74
2021/12/15 01:37:53;;;;;;;96.32;36.67;;;9.90;99.90;;;;;;5091503;28;20044;-74
2021/12/15 01:40:32;;;;;;;92.57;35.28;;;9.90;99.90;;;;;;5072892;28;20055;-74
2021/12/15 01:42:58;;;;;;;90.45;34.90;;;9.90;99.90;;;;;;5076929;28;20115;-73
2021/12/15 01:48:13;;;;;;;92.78;37.05;;;9.90;99.90;;;;;;5073199;28;20051;-74
2021/12/15 01:50:40;;;;;;;81.57;35.15;;;9.90;99.90;;;;;;5072968;28;20054;-74
2021/12/15 01:53:07;;;;;;;89.10;35.85;;;9.80;99.90;;;;;;5073221;28;20482;-74
2021/12/15 01:55:33;;;;;;;94.68;37.35;;;9.80;99.90;;;;;;5091158;28;20044;-73
2021/12/15 01:57:59;;;;;;;89.60;35.47;;;9.90;99.90;;;;;;5072529;28;20540;-73
2021/12/15 02:00:32;;;;;;;91.32;36.03;;;9.90;99.90;;;;;;5107711;28;20093;-73
2021/12/15 02:02:58;;;;;;;84.38;35.67;;;9.90;99.90;;;;;;5093231;28;20126;-74
2021/12/15 02:05:28;;;;;;;78.80;34.42;;;9.90;99.90;;;;;;5111300;28;20142;-73
2021/12/15 02:07:54;;;;;;;87.65;35.50;;;9.90;99.90;;;;;;5110985;28;20104;-73
2021/12/15 02:10:23;;;;;;;88.85;37.38;;;9.80;99.90;;;;;;5111450;28;20050;-73
2021/12/15 02:12:50;;;;;;;79.57;35.17;;;9.90;99.90;;;;;;5111096;28;20059;-74
2021/12/15 02:15:19;;;;;;;85.82;35.58;;;9.90;99.90;;;;;;5111431;28;20082;-73
2021/12/15 02:17:46;;;;;;;77.40;35.40;;;9.90;99.90;;;;;;5091660;28;20410;-73
2021/12/15 02:20:14;;;;;;;70.45;32.45;;;9.90;99.90;;;;;;5090702;28;20048;-73
2021/12/15 02:22:41;;;;;;;87.32;34.30;;;9.90;99.90;;;;;;5090271;28;20042;-74
2021/12/15 02:25:10;;;;;;;75.93;35.10;;;9.90;99.90;;;;;;5089325;28;20080;-73
2021/12/15 02:27:36;;;;;;;83.93;32.47;;;9.90;99.90;;;;;;5090356;28;20048;-73
2021/12/15 02:30:27;;;;;;;71.97;34.65;;;9.90;99.90;;;;;;5089592;28;20086;-74
2021/12/15 02:33:10;;;;;;;79.90;34.58;;;9.90;99.90;;;;;;5071829;28;20044;-74
2021/12/15 02:38:32;;;;;;;77.85;35.20;;;10.00;99.90;;;;;;5090369;28;20056;-74
2021/12/15 02:41:06;;;;;;;80.38;34.75;;;10.00;99.90;;;;;;5089324;28;20127;-73
2021/12/15 02:43:32;;;;;;;73.00;35.47;;;10.00;99.90;;;;;;5088732;28;20469;-73
2021/12/15 02:45:57;;;;;;;83.72;36.20;;;10.00;99.90;;;;;;5089181;28;20040;-73
2021/12/15 02:48:23;;;;;;;78.78;35.92;;;10.00;99.90;;;;;;5089081;28;20093;-73
2021/12/15 02:50:49;;;;;;;69.43;35.45;;;10.00;99.90;;;;;;5092067;28;20134;-73
2021/12/15 02:53:16;;;;;;;70.80;34.22;;;10.00;99.90;;;;;;5092073;28;20434;-73
2021/12/15 02:55:42;;;;;;;82.28;34.90;;;10.00;99.90;;;;;;5110476;28;20089;-73
2021/12/15 02:58:07;;;;;;;77.47;35.72;;;10.00;99.90;;;;;;5091950;28;20505;-74
2021/12/15 03:00:48;;;;;;;80.78;36.60;;;10.00;99.90;;;;;;5091415;28;20043;-73
2021/12/15 03:06:30;;;;;;;80.95;34.22;;;10.10;99.90;;;;;;5050543;28;20051;-74
2021/12/15 03:15:15;;;;;;;78.40;35.90;;;10.00;99.90;;;;;;5088258;28;20044;-73
2021/12/15 03:17:25;;;;;;;82.07;35.13;;;10.10;99.90;;;;;;5090962;28;20070;-74
2021/12/15 03:19:52;;;;;;;78.68;34.90;;;10.10;99.90;;;;;;5090598;28;20043;-74
2021/12/15 03:22:18;;;;;;;77.18;36.20;;;10.10;99.90;;;;;;5091138;28;20043;-74
2021/12/15 03:24:43;;;;;;;77.50;34.40;;;10.10;99.90;;;;;;5090942;28;20485;-74
2021/12/15 03:27:16;;;;;;;76.40;35.65;;;10.10;99.90;;;;;;5090593;28;20039;-74
2021/12/15 03:37:47;;;;;;;76.53;34.88;;;10.10;99.90;;;;;;5090589;28;20083;-74
2021/12/15 03:40:20;;;;;;;78.75;34.88;;;10.10;99.90;;;;;;5090431;28;20146;-74
2021/12/15 03:42:58;;;;;;;77.75;36.22;;;10.10;99.90;;;;;;5090520;28;20101;-74
2021/12/15 03:45:36;;;;;;;69.43;32.72;;;10.10;99.90;;;;;;5090077;28;20039;-74
2021/12/15 03:48:06;;;;;;;74.95;32.80;;;10.00;99.90;;;;;;5090801;28;20044;-74
2021/12/15 03:50:32;;;;;;;73.53;34.72;;;10.00;99.90;;;;;;5082798;28;20048;-74
2021/12/15 03:52:58;;;;;;;84.57;36.72;;;10.10;99.90;;;;;;5088423;28;20048;-73
2021/12/15 03:55:29;;;;;;;81.07;36.17;;;10.00;99.90;;;;;;5088649;28;20036;-74
2021/12/15 03:57:56;;;;;;;78.47;35.92;;;10.10;99.90;;;;;;5087979;28;20044;-74
2021/12/15 04:00:23;;;;;;;82.75;36.42;;;10.10;99.90;;;;;;5088323;28;20048;-74
2021/12/15 04:02:49;;;;;;;77.55;35.58;;;10.00;99.90;;;;;;5088632;28;20137;-74
2021/12/15 04:05:17;;;;;;;77.53;36.10;;;10.00;99.90;;;;;;5088132;28;20079;-74
2021/12/15 04:07:43;;;;;;;77.50;35.60;;;10.00;99.90;;;;;;5088104;28;20117;-74
2021/12/15 04:10:13;;;;;;;80.65;38.03;;;10.00;99.90;;;;;;5069935;28;20495;-74
2021/12/15 04:12:42;;;;;;;77.20;35.47;;;10.00;99.90;;;;;;5070120;28;20058;-73
2021/12/15 04:17:47;;;;;;;85.05;35.97;;;10.00;99.90;;;;;;5069502;28;20063;-74
2021/12/15 04:20:16;;;;;;;72.90;34.13;;;10.00;99.90;;;;;;5088718;28;20062;-74
2021/12/15 04:22:42;;;;;;;73.22;35.22;;;10.00;99.90;;;;;;5073747;28;20048;-74
2021/12/15 04:25:11;;;;;;;79.55;35.75;;;10.00;99.90;;;;;;5091765;28;20051;-74
2021/12/15 04:27:38;;;;;;;84.47;37.15;;;10.00;99.90;;;;;;5092138;28;20044;-74
2021/12/15 04:30:09;;;;;;;79.53;39.00;;;10.00;99.90;;;;;;5091578;28;20502;-74
2021/12/15 04:32:40;;;;;;;80.57;37.38;;;10.00;99.90;;;;;;5073671;28;20055;-74
2021/12/15 04:35:07;;;;;;;80.07;36.33;;;10.00;99.90;;;;;;5073629;28;20245;-74
2021/12/15 04:37:32;;;;;;;78.13;37.53;;;10.00;99.90;;;;;;5091682;28;20071;-74
2021/12/15 04:39:58;;;;;;;76.63;37.67;;;10.00;99.90;;;;;;5091145;28;20567;-74
2021/12/15 04:42:25;;;;;;;75.43;34.83;;;10.00;99.90;;;;;;5091389;28;20449;-74
2021/12/15 04:44:56;;;;;;;78.38;39.40;;;10.00;99.90;;;;;;5091545;28;20140;-74
2021/12/15 04:47:23;;;;;;;82.05;37.78;;;10.00;99.90;;;;;;5091760;28;20059;-74
2021/12/15 04:49:51;;;;;;;74.57;35.78;;;10.00;99.90;;;;;;5093135;28;20421;-74
2021/12/15 04:52:23;;;;;;;71.43;35.20;;;10.00;99.90;;;;;;5093765;28;20126;-73
2021/12/15 04:54:50;;;;;;;73.63;36.78;;;10.00;99.90;;;;;;5111256;28;20047;-73
2021/12/15 04:57:17;;;;;;;77.63;34.17;;;10.00;99.90;;;;;;5094038;28;20545;-74
2021/12/15 04:59:44;;;;;;;75.03;35.90;;;10.00;99.90;;;;;;5111665;28;20051;-74
2021/12/15 05:02:11;;;;;;;76.45;37.05;;;10.00;99.90;;;;;;5111627;28;20096;-74
2021/12/15 05:04:37;;;;;;;86.10;37.38;;;10.00;99.90;;;;;;5111109;28;20051;-74
2021/12/15 05:07:04;;;;;;;77.32;37.72;;;10.00;99.90;;;;;;5093294;28;20044;-73
2021/12/15 05:09:30;;;;;;;80.05;37.10;;;10.00;99.90;;;;;;5093043;28;20504;-74
2021/12/15 05:11:56;;;;;;;76.50;36.72;;;10.00;99.90;;;;;;5093158;28;20051;-73
2021/12/15 05:14:23;;;;;;;70.72;37.10;;;10.00;99.90;;;;;;5093488;28;20039;-74
2021/12/15 05:16:51;;;;;;;76.65;37.05;;;10.00;99.90;;;;;;5092487;28;20051;-74
2021/12/15 05:19:18;;;;;;;66.55;34.60;;;10.00;99.90;;;;;;5111338;28;20047;-73
2021/12/15 05:21:44;;;;;;;76.72;35.78;;;10.00;99.90;;;;;;5093079;28;20044;-73
2021/12/15 05:24:23;;;;;;;75.35;36.20;;;10.00;99.90;;;;;;5092587;28;20054;-73
2021/12/15 05:26:50;;;;;;;75.35;35.13;;;10.00;99.90;;;;;;5092860;28;20047;-74
2021/12/15 05:29:15;;;;;;;71.90;35.75;;;10.10;99.90;;;;;;5092981;28;20113;-74
2021/12/15 05:31:41;;;;;;;80.22;37.92;;;10.00;99.90;;;;;;5092677;28;20047;-73
2021/12/15 05:34:07;;;;;;;70.95;34.08;;;10.10;99.90;;;;;;5092820;28;20142;-74
2021/12/15 05:36:32;;;;;;;72.72;35.22;;;10.00;99.90;;;;;;5111282;28;20126;-74
2021/12/15 05:38:58;;;;;;;72.20;34.40;;;10.10;99.90;;;;;;5110322;28;20414;-74
2021/12/15 05:41:24;;;;;;;71.28;33.08;;;10.10;99.90;;;;;;5092966;28;20094;-74
2021/12/15 05:43:50;;;;;;;70.18;35.03;;;10.00;99.90;;;;;;5092866;28;20048;-73
2021/12/15 05:46:16;;;;;;;68.10;33.97;;;10.00;99.90;;;;;;5110851;28;20075;-74
2021/12/15 05:48:42;;;;;;;70.38;33.00;;;10.10;99.90;;;;;;5110632;28;20078;-74
2021/12/15 05:51:07;;;;;;;73.80;36.15;;;10.10;99.90;;;;;;5079263;28;20556;-73
2021/12/15 05:53:33;;;;;;;67.80;32.85;;;10.00;99.90;;;;;;5072050;28;20081;-73
2021/12/15 05:55:59;;;;;;;76.18;33.33;;;10.00;99.90;;;;;;5071891;28;20058;-74
2021/12/15 05:58:24;;;;;;;68.78;33.72;;;10.00;99.90;;;;;;5072129;28;20040;-74
2021/12/15 06:00:51;;;;;;;71.55;34.30;;;10.00;99.90;;;;;;5072053;28;20047;-73
2021/12/15 06:03:17;;;;;;;67.47;32.88;;;10.00;99.90;;;;;;5071523;28;20051;-73
2021/12/15 06:05:43;;;;;;;63.33;31.98;;;10.00;99.90;;;;;;5089860;28;20052;-73
2021/12/15 06:08:09;;;;;;;64.45;30.75;;;10.00;99.90;;;;;;5089886;28;20460;-73
2021/12/15 06:10:37;;;;;;;72.72;35.40;;;10.00;99.90;;;;;;5055081;28;20040;-74
2021/12/15 06:13:05;;;;;;;78.00;33.80;;;10.00;99.90;;;;;;5071564;28;20085;-74
2021/12/15 06:15:31;;;;;;;68.45;33.55;;;10.00;99.90;;;;;;5071468;28;20044;-74
2021/12/15 06:18:04;;;;;;;67.82;32.85;;;10.00;99.90;;;;;;5071891;28;20048;-73
2021/12/15 06:20:30;;;;;;;77.53;35.30;;;10.00;99.90;;;;;;5071718;28;20109;-73
2021/12/15 06:22:59;;;;;;;70.70;34.33;;;10.00;99.90;;;;;;5089771;28;20115;-74
2021/12/15 06:25:25;;;;;;;69.88;35.00;;;10.00;99.90;;;;;;5089389;28;20093;-74
2021/12/15 06:27:51;;;;;;;65.00;32.83;;;10.00;99.90;;;;;;5089609;28;20055;-74
2021/12/15 06:30:17;;;;;;;72.70;35.75;;;10.00;99.90;;;;;;5071149;28;20040;-74
2021/12/15 06:32:44;;;;;;;70.85;34.53;;;10.00;99.90;;;;;;5071642;28;20048;-74
2021/12/15 06:35:11;;;;;;;75.95;36.10;;;10.00;99.90;;;;;;5089543;28;20048;-74
2021/12/15 06:37:37;;;;;;;69.82;33.95;;;10.00;99.90;;;;;;5089352;28;20086;-74
2021/12/15 06:40:08;;;;;;;72.85;34.85;;;10.00;99.90;;;;;;5089514;28;20048;-74
2021/12/15 06:42:35;;;;;;;65.68;32.30;;;10.00;99.90;;;;;;5070401;28;20558;-72
2021/12/15 06:45:02;;;;;;;72.88;31.70;;;9.90;99.90;;;;;;5071234;28;20079;-71
2021/12/15 06:58:24;;;;;;;66.22;31.27;;;10.00;99.90;;;;;;5092091;28;20055;-72
2021/12/15 07:00:54;;;;;;;68.47;33.80;;;9.90;99.90;;;;;;5091603;28;20051;-73
2021/12/15 07:03:21;;;;;;;71.43;32.85;;;10.00;99.90;;;;;;5092326;28;20066;-73
2021/12/15 07:05:47;;;;;;;77.78;35.03;;;9.90;99.90;;;;;;5092372;28;20035;-72
2021/12/15 07:08:14;;;;;;;68.85;31.75;;;10.00;99.90;;;;;;5091374;28;20497;-72
2021/12/15 07:10:47;;;;;;;79.45;35.42;;;10.00;99.90;;;;;;5091540;28;20084;-72
2021/12/15 07:13:16;;;;;;;72.35;32.70;;;9.90;99.90;;;;;;5091823;28;20048;-73
2021/12/15 07:15:43;;;;;;;77.15;34.67;;;10.00;99.90;;;;;;5110185;28;20044;-73
2021/12/15 07:18:12;;;;;;;68.55;33.97;;;9.90;99.90;;;;;;5075187;28;20447;-72
2021/12/15 07:20:43;;;;;;;72.97;34.90;;;9.90;99.90;;;;;;5091497;28;20047;-72
2021/12/15 07:23:13;;;;;;;70.25;32.20;;;9.90;99.90;;;;;;5110136;28;20043;-72
2021/12/15 07:25:41;;;;;;;71.93;35.35;;;9.90;99.90;;;;;;5109962;28;20039;-72
2021/12/15 07:28:07;;;;;;;72.53;34.63;;;9.90;99.90;;;;;;5109722;28;20127;-72
2021/12/15 07:30:35;;;;;;;70.10;34.55;;;9.90;99.90;;;;;;5091699;28;20514;-73
2021/12/15 07:33:01;;;;;;;74.00;32.85;;;10.00;99.90;;;;;;5109654;28;20410;-73
2021/12/15 07:35:27;;;;;;;69.45;33.40;;;9.90;99.90;;;;;;5110061;28;20573;-73
2021/12/15 07:37:53;;;;;;;67.05;31.23;;;9.90;99.90;;;;;;5091450;28;20039;-73
2021/12/15 07:40:21;;;;;;;69.85;32.25;;;10.00;99.90;;;;;;5091454;28;20043;-73
2021/12/15 07:43:06;;;;;;;68.20;33.22;;;10.00;99.90;;;;;;5091567;28;20039;-73
2021/12/15 07:45:50;;;;;;;62.70;31.65;;;10.00;99.90;;;;;;5091295;28;20549;-73
2021/12/15 07:48:18;;;;;;;70.00;33.08;;;10.00;99.90;;;;;;5091765;28;20051;-73
2021/12/15 07:50:46;;;;;;;68.35;31.48;;;10.00;99.90;;;;;;5091454;28;20046;-73
2021/12/15 07:53:13;;;;;;;68.28;32.30;;;10.00;99.90;;;;;;5091454;28;20079;-73
2021/12/15 07:55:39;;;;;;;70.05;33.65;;;10.00;99.90;;;;;;5092954;28;20123;-73
2021/12/15 07:58:07;;;;;;;56.65;29.40;;;10.00;99.90;;;;;;5095582;28;20553;-73
2021/12/15 08:00:35;;;;;;;64.55;31.08;;;10.00;99.90;;;;;;5094780;28;20051;-73
2021/12/15 08:03:01;;;;;;;62.17;30.17;;;10.00;99.90;;;;;;5095373;28;20055;-73
2021/12/15 08:05:27;;;;;;;62.10;31.83;;;10.00;99.90;;;;;;5113801;28;20039;-73
2021/12/15 08:07:53;;;;;;;60.45;29.15;;;10.00;99.90;;;;;;5095221;28;20102;-73
2021/12/15 08:10:19;;;;;;;72.60;29.23;;;10.00;99.90;;;;;;5095101;28;20047;-73
2021/12/15 08:12:46;;;;;;;64.38;32.60;;;10.00;99.90;;;;;;5094926;28;20559;-73
2021/12/15 08:15:13;;;;;;;59.25;30.73;;;10.00;99.90;;;;;;5113169;28;20075;-73
2021/12/15 08:17:41;;;;;;;57.08;30.02;;;10.00;99.90;;;;;;5113264;28;20058;-73
2021/12/15 08:20:10;;;;;;;56.90;28.02;;;10.10;99.90;;;;;;5095379;28;20088;-73
2021/12/15 08:22:37;;;;;;;60.30;29.50;;;10.10;99.90;;;;;;5077913;28;20090;-73
2021/12/15 08:25:05;;;;;;;55.80;28.42;;;10.10;99.90;;;;;;5094808;28;20138;-73
2021/12/15 08:27:31;;;;;;;52.53;26.58;;;10.10;99.90;;;;;;5113369;28;20039;-73
2021/12/15 08:29:57;;;;;;;55.10;28.13;;;10.10;99.90;;;;;;5113076;28;20043;-73
2021/12/15 08:32:23;;;;;;;51.67;26.65;;;10.10;99.90;;;;;;5095197;28;20051;-74
2021/12/15 08:34:48;;;;;;;50.13;27.17;;;10.10;99.90;;;;;;5094935;28;20043;-73
2021/12/15 08:37:15;;;;;;;50.70;27.15;;;10.10;99.90;;;;;;5095061;28;20043;-73
2021/12/15 08:39:43;;;;;;;54.70;28.25;;;10.20;99.90;;;;;;5094528;28;20124;-73
2021/12/15 08:42:10;;;;;;;54.85;26.73;;;10.10;99.90;;;;;;5094980;28;20047;-73
2021/12/15 08:44:36;;;;;;;51.08;25.52;;;10.20;99.90;;;;;;5094906;28;20051;-73
2021/12/15 08:47:04;;;;;;;44.10;22.88;;;10.10;99.90;;;;;;5094153;28;20579;-73
2021/12/15 08:49:30;;;;;;;41.30;20.88;;;10.20;99.90;;;;;;5094660;28;20043;-73
2021/12/15 08:51:55;;;;;;;37.10;21.40;;;10.20;99.90;;;;;;5112803;28;20047;-73
2021/12/15 08:54:22;;;;;;;37.08;20.27;;;10.20;99.90;;;;;;5077496;28;20046;-73
2021/12/15 08:56:49;;;;;;;34.90;20.05;;;10.20;99.90;;;;;;5094645;28;20128;-73
2021/12/15 08:59:15;;;;;;;35.15;19.63;;;10.30;99.90;;;;;;5094364;28;20401;-73
2021/12/15 09:01:43;;;;;;;39.20;17.48;;;10.20;99.90;;;;;;5094050;28;20047;-73
2021/12/15 09:04:09;;;;;;;29.52;17.58;;;10.30;99.90;;;;;;5112215;28;20128;-73
2021/12/15 09:06:35;;;;;;;33.25;16.83;;;10.30;99.90;;;;;;5093248;28;20156;-73
2021/12/15 09:09:03;;;;;;;29.00;15.45;;;10.30;99.90;;;;;;5093983;28;20060;-73
2021/12/15 09:11:29;;;;;;;31.00;15.32;;;10.30;99.90;;;;;;5094270;28;20498;-73
2021/12/15 09:13:59;;;;;;;28.75;14.38;;;10.30;99.90;;;;;;5112685;28;20044;-73
2021/12/15 09:16:26;;;;;;;23.50;13.82;;;10.30;99.90;;;;;;5093655;28;20044;-73
2021/12/15 09:18:54;;;;;;;24.45;13.95;;;10.30;99.90;;;;;;5093973;28;20051;-73
2021/12/15 09:21:22;;;;;;;28.42;15.00;;;10.20;99.90;;;;;;5112520;28;20101;-73
2021/12/15 09:23:49;;;;;;;29.75;15.73;;;10.20;99.90;;;;;;5112131;28;20047;-73
2021/12/15 09:26:15;;;;;;;30.83;15.73;;;10.30;99.90;;;;;;5112742;28;20055;-73
2021/12/15 09:28:41;;;;;;;28.88;15.93;;;10.30;99.90;;;;;;5093788;28;20092;-73
2021/12/15 09:31:09;;;;;;;27.00;14.85;;;10.30;99.90;;;;;;5112115;28;20492;-72
2021/12/15 09:33:38;;;;;;;33.42;15.80;;;10.40;99.90;;;;;;5111873;28;20036;-72
2021/12/15 09:36:05;;;;;;;33.17;16.48;;;10.40;99.90;;;;;;5112064;28;20493;-73
2021/12/15 09:38:32;;;;;;;34.40;15.95;;;10.40;99.90;;;;;;5093543;28;20040;-73
2021/12/15 09:41:00;;;;;;;29.23;15.95;;;10.40;99.90;;;;;;5076615;28;20390;-72
2021/12/15 09:43:28;;;;;;;36.65;17.23;;;10.50;99.90;;;;;;5093542;28;20826;-73
2021/12/15 09:46:04;;;;;;;32.78;16.33;;;10.50;99.90;;;;;;5093349;28;20043;-73
2021/12/15 09:57:15;;;;;;;37.28;17.17;;;10.60;99.90;;;;;;5090767;28;20052;-73
2021/12/15 10:05:15;;;;;;;28.08;15.02;;;10.80;99.90;;;;;;5072695;28;20392;-73
2021/12/15 10:18:29;;;;;;;;;;;10.80;99.90;;;;;;5072746;28;19920;-73
2021/12/15 10:20:55;;;;;;;;;;;10.80;99.90;;;;;;5072931;28;19934;-73
2021/12/15 10:23:25;;;;;;;;;;;10.80;99.90;;;;;;5073277;28;19924;-73
2021/12/15 10:25:54;;;;;;;;;;;10.80;99.90;;;;;;5091204;28;19924;-73
2021/12/15 10:28:21;;;;;;;;;;;10.80;99.90;;;;;;5090794;28;19998;-73
2021/12/15 10:30:54;;;;;;;;;;;10.70;99.90;;;;;;5072762;28;20379;-73
2021/12/15 10:33:24;;;;;;;;;;;10.70;99.90;;;;;;5090853;28;19970;-73
2021/12/15 10:35:50;;;;;;;;;;;10.70;99.90;;;;;;5072861;28;19924;-73
2021/12/15 10:38:18;;;;;;;;;;;10.70;99.90;;;;;;5072961;28;20298;-73
2021/12/15 10:41:03;;;;;;;;;;;10.70;99.90;;;;;;5071873;28;19920;-73
2021/12/15 10:43:31;;;;;;;;;;;10.70;99.90;;;;;;5090871;28;19962;-73
2021/12/15 10:45:59;;;;;;;;;;;10.70;99.90;;;;;;5090403;28;19920;-72
2021/12/15 10:48:35;;;;;;;;;;;10.70;99.90;;;;;;5090407;28;19959;-73
2021/12/15 10:51:19;;;;;;;;;;;10.70;99.90;;;;;;5084355;28;20405;-73
2021/12/15 10:53:45;;;;;;;;;;;10.70;99.90;;;;;;5092562;28;20415;-73
2021/12/15 10:56:12;;;;;;;;;;;10.70;99.90;;;;;;5092767;28;20014;-73
2021/12/15 10:58:42;;;;;;;;;;;10.70;99.90;;;;;;5075797;28;20010;-73
2021/12/15 11:01:26;;;;;;;;;;;10.70;99.90;;;;;;5092860;28;19919;-73
2021/12/15 11:03:52;;;;;;;;;;;10.80;99.90;;;;;;5092634;28;19970;-73
2021/12/15 11:06:22;;;;;;;;;;;10.80;99.90;;;;;;5110844;28;19963;-73
2021/12/15 11:08:48;;;;;;;;;;;10.80;99.90;;;;;;5092547;28;19923;-72
2021/12/15 11:11:24;;;;;;;;;;;10.80;99.90;;;;;;5075506;28;20022;-74
2021/12/15 11:13:49;;;;;;;;;;;10.80;99.90;;;;;;5092886;28;19967;-74
2021/12/15 11:16:15;;;;;;;;;;;10.70;99.90;;;;;;5092373;28;19966;-73
2021/12/15 11:18:40;;;;;;;;;;;10.70;99.90;;;;;;5092336;28;20014;-73
2021/12/15 11:21:08;;;;;;;;;;;10.80;99.90;;;;;;5091791;28;20400;-73
2021/12/15 11:23:34;;;;;;;;;;;10.80;99.90;;;;;;5092365;28;19927;-73
2021/12/15 11:26:02;;;;;;;;;;;10.80;99.90;;;;;;5092471;28;20006;-73
2021/12/15 11:28:29;;;;;;;;;;;10.80;99.90;;;;;;5092405;28;19919;-73
2021/12/15 11:31:01;;;;;;;;;;;10.80;99.90;;;;;;5109626;28;19926;-73
2021/12/15 11:33:41;;;;;;;;;;;10.90;99.90;;;;;;5092199;28;20418;-73
2021/12/15 11:36:30;;;;;;;;;;;10.90;99.90;;;;;;5092227;28;20373;-73
2021/12/15 11:39:16;;;;;;;;;;;10.90;99.90;;;;;;5075495;28;19927;-73
2021/12/15 11:41:48;;;;;;;;;;;10.90;99.90;;;;;;5091870;28;19926;-73
2021/12/15 11:44:15;;;;;;;;;;;10.90;99.90;;;;;;5074700;28;19930;-73
2021/12/15 11:46:49;;;;;;;;;;;10.90;99.90;;;;;;5092004;28;19973;-73
2021/12/15 11:49:17;;;;;;;;;;;10.80;99.90;;;;;;5092008;28;19920;-73
2021/12/15 11:51:43;;;;;;;;;;;10.80;99.90;;;;;;5074026;28;19920;-73
2021/12/15 11:54:14;;;;;;;;;;;10.80;99.90;;;;;;5071917;28;19926;-74
2021/12/15 11:56:40;;;;;;;;;;;10.90;99.90;;;;;;5054557;28;19920;-73
2021/12/15 11:59:24;;;;;;;;;;;10.90;99.90;;;;;;5071698;28;20283;-73
2021/12/15 12:01:51;;;;;;;;;;;11.00;99.90;;;;;;5071563;28;20057;-73
2021/12/15 12:04:22;;;;;;;;;;;11.00;99.90;;;;;;5071607;28;19961;-73
2021/12/15 12:06:49;;;;;;;;;;;11.00;99.90;;;;;;5071898;28;19945;-73
2021/12/15 12:09:16;;;;;;;;;;;11.00;99.90;;;;;;5085895;28;20014;-74
2021/12/15 12:11:44;;;;;;;;;;;11.00;99.90;;;;;;5088220;28;20011;-74
2021/12/15 12:14:18;;;;;;;;;;;10.90;99.90;;;;;;5071420;28;20040;-73
2021/12/15 12:16:44;;;;;;;;;;;10.90;99.90;;;;;;5088364;28;19931;-73
2021/12/15 12:19:10;;;;;;;;;;;10.90;99.90;;;;;;5088185;28;19920;-73
2021/12/15 12:21:36;;;;;;;;;;;10.90;99.90;;;;;;5088570;28;19927;-73
2021/12/15 12:24:02;;;;;;;;;;;10.90;99.90;;;;;;5088598;28;19927;-75
2021/12/15 12:26:31;;;;;;;;;;;10.80;99.90;;;;;;5088568;28;20386;-74
2021/12/15 12:28:57;;;;;;;;;;;10.80;99.90;;;;;;5088454;28;20294;-74
2021/12/15 12:31:23;;;;;;;;;;;10.80;99.90;;;;;;5071156;28;19926;-74
2021/12/15 12:33:49;;;;;;;;;;;10.90;99.90;;;;;;5088365;28;19924;-74
2021/12/15 12:36:20;;;;;;;;;;;10.90;99.90;;;;;;5088501;28;20386;-75
2021/12/15 12:38:54;;;;;;;;;;;10.90;99.90;;;;;;5088255;28;19924;-75
2021/12/15 12:41:25;;;;;;;13.77;6.50;;;10.90;99.90;;;;;;5088174;28;20405;-75
2021/12/15 12:43:54;;;;;;;15.40;6.32;;;11.00;99.90;;;;;;5091500;28;20076;-75
2021/12/15 12:46:32;;;;;;;11.05;5.25;;;11.10;99.90;;;;;;5091492;28;20044;-73
2021/12/15 12:49:26;;;;;;;11.63;5.20;;;11.10;99.90;;;;;;5091327;28;20079;-73
2021/12/15 13:00:22;;;;;;;10.50;5.13;;;11.20;99.90;;;;;;5089854;28;20437;-72
2021/12/15 13:02:51;;;;;;;12.82;5.20;;;11.30;99.90;;;;;;5089598;28;20485;-72
2021/12/15 13:05:45;;;;;;;10.55;4.80;;;11.30;99.90;;;;;;5089483;28;20652;-72
2021/12/15 13:08:36;;;;;;;8.75;3.78;;;11.20;99.90;;;;;;5070091;28;20409;-73
2021/12/15 13:11:21;;;;;;;8.00;3.60;;;11.20;99.90;;;;;;5092954;28;20453;-73
2021/12/15 13:14:04;;;;;;;11.57;3.58;;;11.30;99.90;;;;;;5092842;28;20415;-74
2021/12/15 13:16:45;;;;;;;9.18;3.63;;;11.30;99.90;;;;;;5092419;28;20450;-75
2021/12/15 13:19:11;;;;;;;10.13;3.00;;;11.40;99.90;;;;;;5092733;28;20511;-75
2021/12/15 13:21:50;;;;;;;6.90;3.30;;;11.70;99.90;;;;;;5075606;28;20484;-75
2021/12/15 13:28:43;;;;;;;8.43;2.95;;;11.90;99.90;;;;;;5075348;28;20416;-74
2021/12/15 13:30:30;;;;;;;6.95;2.30;;;12.30;99.90;;;;;;5092831;28;20432;-73
2021/12/15 13:33:05;;;;;;;7.43;2.40;;;12.10;99.90;;;;;;5092793;28;20442;-73
2021/12/15 13:35:38;;;;;;;6.90;2.30;;;12.00;99.90;;;;;;5075367;28;20405;-73
2021/12/15 13:38:04;;;;;;;8.75;2.15;;;11.80;99.90;;;;;;5092309;28;20416;-72
2021/12/15 13:40:54;;;;;;;9.05;2.28;;;11.70;99.90;;;;;;5091974;28;20945;-71
2021/12/15 13:43:50;;;;;;;6.47;1.90;;;11.50;99.90;;;;;;5110713;28;20463;-73
2021/12/15 13:46:28;;;;;;;6.67;1.90;;;11.40;99.90;;;;;;5092168;28;20400;-75
2021/12/15 13:48:59;;;;;;;7.40;2.10;;;11.40;99.90;;;;;;5092336;28;20487;-75
2021/12/15 13:52:02;;;;;;;6.13;2.33;;;11.20;99.90;;;;;;5077172;28;20472;-75
2021/12/15 13:54:35;;;;;;;7.83;2.40;;;11.20;99.90;;;;;;5070360;28;20943;-75
2021/12/15 13:57:13;;;;;;;8.68;2.30;;;11.10;99.90;;;;;;5071193;28;20413;-75
2021/12/15 13:59:38;;;;;;;;;;;11.00;99.90;;;;;;5056616;28;20055;-74
2021/12/15 14:02:14;;;;;;;;;;;10.90;99.90;;;;;;5073457;28;19920;-74
2021/12/15 14:04:55;;;;;;;;;;;10.90;99.90;;;;;;5091810;28;19927;-75
2021/12/15 14:07:39;;;;;;;;;;;10.80;99.90;;;;;;5073379;28;19919;-75
2021/12/15 14:10:11;;;;;;;;;;;10.80;99.90;;;;;;5073082;28;19926;-75
2021/12/15 14:12:45;;;;;;;;;;;10.80;99.90;;;;;;5073407;28;20283;-75
2021/12/15 14:15:12;;;;;;;;;;;10.90;99.90;;;;;;5073351;28;19920;-75
2021/12/15 14:17:38;;;;;;;;;;;10.90;99.90;;;;;;5073370;28;19956;-75
2021/12/15 14:20:13;;;;;;;;;;;10.90;99.90;;;;;;5072985;28;19920;-74
2021/12/15 14:22:38;;;;;;;;;;;10.70;99.90;;;;;;5072729;28;19973;-73